createdAt,value
2018-09-23T00:01:24.690Z,14.20
2018-09-23T00:03:55.336Z,14.20
2018-09-23T00:06:25.946Z,14.20
2018-09-23T00:08:57.088Z,14.20
2018-09-23T00:11:27.664Z,14.20
2018-09-23T00:13:57.325Z,14.10
2018-09-23T00:16:27.075Z,14.10
2018-09-23T00:18:56.762Z,14.10
2018-09-23T00:21:27.251Z,14.10
2018-09-23T00:23:56.723Z,14.10
2018-09-23T00:26:26.295Z,14.00
2018-09-23T00:28:57.970Z,14.00
2018-09-23T00:31:29.335Z,14.00
2018-09-23T00:34:04.195Z,14.00
2018-09-23T00:36:34.544Z,14.00
2018-09-23T00:39:05.850Z,14.00
2018-09-23T00:41:37.697Z,14.00
2018-09-23T00:44:07.202Z,14.00
2018-09-23T00:46:36.869Z,14.00
2018-09-23T00:49:08.207Z,14.00
2018-09-23T00:51:38.029Z,14.00
2018-09-23T00:54:08.892Z,14.00
2018-09-23T00:56:42.150Z,14.00
2018-09-23T00:59:12.062Z,14.00
2018-09-23T01:01:43.616Z,14.00
2018-09-23T01:04:14.505Z,14.00
2018-09-23T01:06:44.344Z,14.00
2018-09-23T01:09:14.557Z,14.00
2018-09-23T01:11:44.161Z,14.10
2018-09-23T01:14:15.104Z,14.10
2018-09-23T01:16:44.695Z,14.10
2018-09-23T01:19:15.249Z,14.10
2018-09-23T01:21:44.761Z,14.10
2018-09-23T01:24:16.201Z,14.10
2018-09-23T01:26:45.584Z,14.10
2018-09-23T01:29:15.708Z,14.10
2018-09-23T01:31:45.394Z,14.10
2018-09-23T01:34:16.977Z,14.10
2018-09-23T01:36:46.542Z,14.10
2018-09-23T01:39:17.216Z,14.10
2018-09-23T01:41:46.907Z,14.10
2018-09-23T01:44:17.526Z,14.00
2018-09-23T01:46:46.978Z,14.00
2018-09-23T01:49:16.460Z,13.90
2018-09-23T01:51:45.859Z,13.90
2018-09-23T01:54:16.535Z,13.90
2018-09-23T01:56:46.002Z,13.80
2018-09-23T01:59:15.546Z,13.80
2018-09-23T02:01:45.048Z,13.80
2018-09-23T02:04:14.512Z,13.80
2018-09-23T02:06:44.060Z,13.80
2018-09-23T02:09:13.704Z,13.80
2018-09-23T02:11:43.134Z,13.90
2018-09-23T02:14:12.619Z,13.90
2018-09-23T02:16:42.031Z,13.90
2018-09-23T02:19:11.481Z,13.90
2018-09-23T02:21:42.134Z,13.90
2018-09-23T02:24:11.730Z,13.90
2018-09-23T02:26:41.416Z,13.90
2018-09-23T02:29:11.193Z,14.00
2018-09-23T02:31:40.746Z,14.00
2018-09-23T02:34:10.256Z,14.00
2018-09-23T02:36:40.496Z,14.00
2018-09-23T02:39:11.232Z,14.00
2018-09-23T02:41:40.706Z,14.00
2018-09-23T02:44:10.279Z,14.00
2018-09-23T02:46:40.524Z,14.00
2018-09-23T02:49:10.358Z,14.00
2018-09-23T02:51:40.067Z,14.00
2018-09-23T02:54:09.759Z,14.00
2018-09-23T02:56:39.477Z,13.90
2018-09-23T02:59:10.711Z,13.90
2018-09-23T03:01:40.220Z,13.90
2018-09-23T03:04:09.820Z,13.90
2018-09-23T03:06:39.289Z,13.90
2018-09-23T03:09:08.792Z,13.90
2018-09-23T03:11:38.373Z,14.00
2018-09-23T03:14:08.127Z,13.90
2018-09-23T03:16:37.905Z,13.90
2018-09-23T03:19:07.513Z,14.00
2018-09-23T03:21:37.054Z,13.90
2018-09-23T03:24:06.635Z,14.00
2018-09-23T03:26:36.271Z,13.90
2018-09-23T03:29:06.837Z,14.00
2018-09-23T03:31:36.506Z,14.00
2018-09-23T03:34:05.887Z,14.00
2018-09-23T03:36:35.593Z,14.00
2018-09-23T03:39:07.336Z,14.00
2018-09-23T03:41:37.205Z,14.00
2018-09-23T03:44:07.019Z,14.00
2018-09-23T03:46:36.636Z,14.00
2018-09-23T03:49:06.324Z,14.00
2018-09-23T03:51:35.827Z,14.00
2018-09-23T03:54:05.657Z,14.00
2018-09-23T03:56:35.308Z,14.00
2018-09-23T03:59:05.472Z,14.00
2018-09-23T04:01:35.223Z,14.00
2018-09-23T04:04:05.987Z,14.00
2018-09-23T04:06:35.609Z,14.00
2018-09-23T04:09:06.740Z,14.00
2018-09-23T04:11:36.438Z,14.00
2018-09-23T04:14:06.582Z,14.10
2018-09-23T04:16:36.190Z,14.10
2018-09-23T04:19:06.412Z,14.10
2018-09-23T04:21:35.957Z,14.10
2018-09-23T04:24:05.394Z,14.10
2018-09-23T04:26:35.534Z,14.10
2018-09-23T04:29:06.790Z,14.10
2018-09-23T04:31:36.572Z,14.10
2018-09-23T04:34:06.251Z,14.00
2018-09-23T04:36:35.817Z,14.10
2018-09-23T04:39:08.150Z,14.00
2018-09-23T04:41:38.012Z,14.00
2018-09-23T04:44:07.674Z,14.00
2018-09-23T04:46:37.310Z,14.00
2018-09-23T04:49:07.837Z,14.00
2018-09-23T04:51:37.270Z,14.00
2018-09-23T04:54:06.773Z,14.10
2018-09-23T04:56:36.209Z,14.00
2018-09-23T04:59:06.838Z,14.10
2018-09-23T05:01:36.448Z,14.10
2018-09-23T05:04:06.109Z,14.00
2018-09-23T05:06:35.609Z,14.00
2018-09-23T05:09:06.549Z,14.00
2018-09-23T05:11:35.941Z,14.00
2018-09-23T05:14:05.464Z,14.00
2018-09-23T05:16:35.425Z,14.00
2018-09-23T05:19:04.963Z,14.00
2018-09-23T05:21:34.513Z,14.00
2018-09-23T05:24:04.146Z,14.00
2018-09-23T05:26:40.178Z,14.00
2018-09-23T05:29:09.668Z,14.00
2018-09-23T05:31:39.338Z,14.10
2018-09-23T05:34:09.042Z,14.00
2018-09-23T05:36:39.122Z,14.10
2018-09-23T05:39:10.569Z,14.10
2018-09-23T05:41:40.448Z,14.10
2018-09-23T05:44:10.500Z,14.10
2018-09-23T05:46:40.303Z,14.20
2018-09-23T05:49:10.699Z,14.20
2018-09-23T05:51:40.316Z,14.20
2018-09-23T05:54:10.118Z,14.10
2018-09-23T05:56:41.195Z,14.20
2018-09-23T05:59:10.971Z,14.20
2018-09-23T06:01:40.582Z,14.20
2018-09-23T06:04:11.187Z,14.20
2018-09-23T06:06:41.883Z,14.20
2018-09-23T06:09:12.513Z,14.20
2018-09-23T06:11:42.327Z,14.10
2018-09-23T06:14:11.900Z,14.10
2018-09-23T06:16:42.525Z,14.10
2018-09-23T06:19:12.192Z,14.00
2018-09-23T06:21:48.219Z,14.00
2018-09-23T06:24:20.059Z,14.00
2018-09-23T06:26:55.438Z,14.00
2018-09-23T06:29:28.657Z,14.00
2018-09-23T06:31:59.590Z,14.00
2018-09-23T06:34:36.296Z,14.00
2018-09-23T06:37:06.234Z,14.10
2018-09-23T06:39:36.021Z,14.10
2018-09-23T06:42:05.676Z,14.10
2018-09-23T06:44:36.059Z,14.10
2018-09-23T06:47:06.379Z,14.10
2018-09-23T06:49:39.293Z,14.00
2018-09-23T06:52:13.451Z,14.00
2018-09-23T06:54:49.081Z,14.00
2018-09-23T06:57:23.466Z,14.00
2018-09-23T07:00:04.226Z,14.10
2018-09-23T07:02:33.965Z,14.10
2018-09-23T07:05:05.729Z,14.10
2018-09-23T07:07:38.570Z,14.10
2018-09-23T07:10:08.206Z,14.10
2018-09-23T07:12:39.482Z,14.10
2018-09-23T07:15:15.426Z,14.00
2018-09-23T07:17:45.018Z,13.90
2018-09-23T07:20:14.597Z,13.80
2018-09-23T07:22:45.172Z,13.80
2018-09-23T07:25:21.328Z,13.80
2018-09-23T07:27:51.755Z,13.80
2018-09-23T07:30:21.367Z,14.00
2018-09-23T07:32:50.868Z,14.10
2018-09-23T07:35:20.358Z,14.10
2018-09-23T07:37:50.522Z,14.10
2018-09-23T07:40:21.139Z,14.10
2018-09-23T07:42:54.282Z,14.20
2018-09-23T07:45:27.587Z,14.20
2018-09-23T07:47:57.021Z,14.20
2018-09-23T07:50:26.986Z,14.20
2018-09-23T07:52:56.852Z,14.20
2018-09-23T07:55:28.452Z,14.20
2018-09-23T07:57:59.145Z,14.30
2018-09-23T08:00:28.889Z,14.30
2018-09-23T08:02:58.881Z,14.30
2018-09-23T08:05:28.430Z,14.20
2018-09-23T08:07:59.110Z,14.20
2018-09-23T08:10:28.685Z,14.20
2018-09-23T08:13:00.825Z,14.20
2018-09-23T08:15:32.437Z,14.20
2018-09-23T08:18:06.539Z,14.20
2018-09-23T08:20:37.059Z,14.20
2018-09-23T08:23:06.779Z,14.20
2018-09-23T08:25:36.345Z,14.20
2018-09-23T08:28:06.568Z,14.20
2018-09-23T08:30:38.527Z,14.30
2018-09-23T08:33:13.499Z,14.40
2018-09-23T08:35:43.812Z,14.40
2018-09-23T08:38:16.710Z,14.40
2018-09-23T08:40:52.324Z,14.60
2018-09-23T08:43:34.845Z,14.70
2018-09-23T08:46:06.916Z,14.70
2018-09-23T08:48:36.705Z,14.80
2018-09-23T08:51:09.163Z,14.80
2018-09-23T08:53:39.014Z,14.80
2018-09-23T08:56:09.531Z,14.70
2018-09-23T08:58:50.085Z,14.70
2018-09-23T09:01:26.476Z,14.70
2018-09-23T09:03:56.039Z,14.70
2018-09-23T09:06:25.785Z,14.80
2018-09-23T09:08:55.242Z,14.90
2018-09-23T09:11:24.783Z,15.00
2018-09-23T09:13:54.425Z,15.10
2018-09-23T09:16:31.211Z,15.10
2018-09-23T09:19:00.927Z,15.20
2018-09-23T09:21:37.618Z,15.10
2018-09-23T09:24:07.527Z,15.10
2018-09-23T09:26:37.112Z,15.00
2018-09-23T09:29:15.517Z,15.00
2018-09-23T09:31:46.985Z,14.90
2018-09-23T09:34:16.965Z,14.90
2018-09-23T09:36:47.041Z,14.90
2018-09-23T09:39:16.980Z,15.00
2018-09-23T09:41:47.511Z,15.10
2018-09-23T09:44:17.053Z,15.10
2018-09-23T09:46:46.533Z,15.20
2018-09-23T09:49:18.893Z,15.30
2018-09-23T09:51:48.436Z,15.30
2018-09-23T09:54:18.016Z,15.40
2018-09-23T09:56:47.477Z,15.40
2018-09-23T09:59:18.113Z,15.40
2018-09-23T10:01:47.744Z,15.40
2018-09-23T10:04:17.238Z,15.40
2018-09-23T10:06:46.748Z,15.40
2018-09-23T10:09:16.167Z,15.30
2018-09-23T10:11:46.311Z,15.30
2018-09-23T10:14:16.330Z,15.30
2018-09-23T10:16:47.472Z,15.20
2018-09-23T10:19:18.372Z,15.30
2018-09-23T10:21:48.120Z,15.40
2018-09-23T10:24:17.870Z,15.40
2018-09-23T10:26:47.503Z,15.40
2018-09-23T10:29:17.884Z,15.40
2018-09-23T10:31:47.701Z,15.30
2018-09-23T10:34:17.115Z,15.30
2018-09-23T10:36:47.611Z,15.30
2018-09-23T10:39:18.318Z,15.20
2018-09-23T10:41:48.659Z,15.20
2018-09-23T10:44:19.008Z,15.20
2018-09-23T10:46:48.601Z,15.20
2018-09-23T10:49:19.531Z,15.30
2018-09-23T10:51:49.615Z,15.30
2018-09-23T10:54:19.204Z,15.20
2018-09-23T10:56:48.783Z,15.10
2018-09-23T10:59:18.182Z,15.10
2018-09-23T11:01:47.717Z,15.00
2018-09-23T11:04:17.017Z,15.10
2018-09-23T11:06:46.468Z,15.10
2018-09-23T11:09:16.046Z,15.10
2018-09-23T11:11:45.697Z,15.10
2018-09-23T11:14:15.234Z,15.00
2018-09-23T11:16:45.437Z,15.10
2018-09-23T11:19:14.984Z,15.20
2018-09-23T11:21:44.787Z,15.20
2018-09-23T11:24:14.282Z,15.20
2018-09-23T11:26:43.712Z,15.30
2018-09-23T11:29:13.250Z,15.30
2018-09-23T11:31:43.506Z,15.30
2018-09-23T11:34:13.630Z,15.30
2018-09-23T11:36:43.161Z,15.30
2018-09-23T11:39:13.813Z,15.30
2018-09-23T11:41:43.683Z,15.30
2018-09-23T11:44:13.419Z,15.20
2018-09-23T11:46:43.196Z,15.20
2018-09-23T11:49:12.773Z,15.10
2018-09-23T11:51:42.925Z,15.10
2018-09-23T11:54:12.380Z,15.20
2018-09-23T11:56:41.940Z,15.30
2018-09-23T11:59:11.615Z,15.30
2018-09-23T12:01:41.640Z,15.40
2018-09-23T12:04:11.353Z,15.40
2018-09-23T12:06:41.184Z,15.30
2018-09-23T12:09:13.192Z,15.30
2018-09-23T12:11:42.953Z,15.30
2018-09-23T12:14:12.705Z,15.20
2018-09-23T12:16:42.616Z,15.10
2018-09-23T12:19:15.054Z,15.10
2018-09-23T12:21:44.468Z,15.10
2018-09-23T12:24:13.993Z,15.10
2018-09-23T12:26:45.497Z,15.00
2018-09-23T12:29:15.017Z,15.10
2018-09-23T12:31:45.162Z,15.10
2018-09-23T12:34:14.772Z,15.10
2018-09-23T12:36:45.583Z,15.00
2018-09-23T12:39:15.297Z,15.00
2018-09-23T12:41:44.944Z,15.00
2018-09-23T12:44:14.659Z,14.90
2018-09-23T12:46:45.822Z,14.80
2018-09-23T12:49:15.486Z,14.80
2018-09-23T12:51:44.868Z,14.80
2018-09-23T12:54:14.430Z,14.80
2018-09-23T12:56:44.210Z,14.80
2018-09-23T12:59:14.011Z,14.80
2018-09-23T13:01:44.382Z,14.80
2018-09-23T13:04:14.519Z,14.80
2018-09-23T13:06:44.384Z,14.80
2018-09-23T13:09:14.026Z,14.70
2018-09-23T13:11:44.611Z,14.70
2018-09-23T13:14:14.248Z,14.70
2018-09-23T13:16:43.928Z,14.60
2018-09-23T13:19:13.514Z,14.60
2018-09-23T13:21:43.287Z,14.70
2018-09-23T13:24:12.830Z,14.70
2018-09-23T13:26:42.515Z,14.70
2018-09-23T13:29:12.141Z,14.70
2018-09-23T13:31:41.624Z,14.60
2018-09-23T13:34:11.121Z,14.50
2018-09-23T13:36:40.886Z,14.40
2018-09-23T13:39:11.064Z,14.30
2018-09-23T13:41:40.596Z,14.20
2018-09-23T13:44:10.547Z,14.10
2018-09-23T13:46:40.739Z,14.00
2018-09-23T13:49:10.791Z,13.90
2018-09-23T13:51:40.697Z,13.80
2018-09-23T13:54:10.673Z,13.80
2018-09-23T13:56:40.570Z,13.70
2018-09-23T13:59:11.134Z,13.60
2018-09-23T14:01:40.749Z,13.50
2018-09-23T14:04:10.397Z,13.40
2018-09-23T14:06:40.317Z,13.40
2018-09-23T14:09:10.775Z,13.30
2018-09-23T14:11:40.380Z,13.30
2018-09-23T14:14:10.975Z,13.30
2018-09-23T14:16:40.669Z,13.20
2018-09-23T14:19:10.776Z,13.20
2018-09-23T14:21:40.347Z,13.20
2018-09-23T14:24:09.978Z,13.10
2018-09-23T14:26:39.488Z,13.10
2018-09-23T14:29:10.059Z,13.00
2018-09-23T14:31:39.641Z,13.00
2018-09-23T14:34:09.252Z,13.00
2018-09-23T14:36:45.300Z,12.90
2018-09-23T14:39:15.405Z,12.90
2018-09-23T14:41:44.819Z,12.90
2018-09-23T14:44:15.121Z,12.80
2018-09-23T14:46:45.256Z,12.70
2018-09-23T14:49:15.889Z,12.70
2018-09-23T14:51:49.169Z,12.70
2018-09-23T14:54:18.913Z,12.70
2018-09-23T14:56:49.598Z,12.70
2018-09-23T14:59:23.498Z,12.70
2018-09-23T15:01:55.385Z,12.70
2018-09-23T15:04:25.171Z,12.70
2018-09-23T15:06:55.904Z,12.70
2018-09-23T15:09:27.463Z,12.70
2018-09-23T15:11:57.138Z,12.70
2018-09-23T15:14:27.695Z,12.70
2018-09-23T15:17:00.623Z,12.70
2018-09-23T15:19:30.312Z,12.70
2018-09-23T15:22:02.426Z,12.60
2018-09-23T15:24:35.842Z,12.60
2018-09-23T15:27:09.561Z,12.50
2018-09-23T15:32:40.182Z,12.50
2018-09-23T15:35:14.830Z,12.50
2018-09-23T15:37:46.253Z,12.40
2018-09-23T15:40:22.307Z,12.30
2018-09-23T15:42:53.452Z,12.30
2018-09-23T15:45:32.925Z,12.30
2018-09-23T15:48:07.093Z,12.20
2018-09-23T15:50:42.838Z,12.20
2018-09-23T15:53:17.886Z,12.20
2018-09-23T15:55:54.904Z,12.10
2018-09-23T15:58:29.840Z,12.10
2018-09-23T16:01:01.089Z,12.10
2018-09-23T16:03:34.249Z,12.10
2018-09-23T16:06:05.583Z,12.00
2018-09-23T16:08:37.333Z,12.00
2018-09-23T16:11:07.566Z,11.90
2018-09-23T16:13:38.475Z,11.90
2018-09-23T16:16:11.381Z,11.80
2018-09-23T16:18:41.798Z,11.80
2018-09-23T16:21:12.211Z,11.80
2018-09-23T16:23:42.245Z,11.80
2018-09-23T16:26:13.412Z,11.80
2018-09-23T16:28:46.080Z,11.80
2018-09-23T16:31:16.037Z,11.80
2018-09-23T16:33:47.033Z,11.80
2018-09-23T16:36:17.564Z,11.80
2018-09-23T16:38:49.690Z,11.80
2018-09-23T16:41:20.312Z,11.80
2018-09-23T16:43:51.704Z,11.80
2018-09-23T16:46:21.778Z,11.80
2018-09-23T16:48:52.900Z,11.90
2018-09-23T16:51:24.915Z,11.90
2018-09-23T16:53:56.106Z,11.90
2018-09-23T16:56:28.346Z,11.90
2018-09-23T16:58:59.275Z,12.00
2018-09-23T17:01:29.095Z,12.10
2018-09-23T17:04:00.714Z,12.10
2018-09-23T17:06:33.182Z,12.10
2018-09-23T17:09:05.638Z,12.00
2018-09-23T17:11:38.463Z,12.00
2018-09-23T17:14:09.624Z,12.00
2018-09-23T17:16:39.699Z,12.00
2018-09-23T17:19:11.086Z,12.00
2018-09-23T17:25:11.065Z,12.00
2018-09-23T17:27:46.183Z,12.00
2018-09-23T17:30:20.702Z,12.00
2018-09-23T17:33:04.024Z,12.00
2018-09-23T17:35:56.215Z,12.00
2018-09-23T17:44:49.416Z,12.10
2018-09-23T17:47:54.346Z,12.10
2018-09-23T17:50:33.627Z,12.10
2018-09-23T17:53:04.320Z,12.00
2018-09-23T17:55:35.990Z,12.00
2018-09-23T17:58:09.060Z,11.90
2018-09-23T18:01:04.074Z,11.80
2018-09-23T18:03:41.786Z,11.80
2018-09-23T18:06:14.649Z,11.70
2018-09-23T18:08:48.834Z,11.60
2018-09-23T18:11:23.697Z,11.60
2018-09-23T18:13:58.488Z,11.50
2018-09-23T18:16:31.929Z,11.40
2018-09-23T18:19:04.855Z,11.40
2018-09-23T18:21:39.640Z,11.30
2018-09-23T18:24:22.123Z,11.30
2018-09-23T18:26:53.376Z,11.10
2018-09-23T18:29:25.937Z,10.90
2018-09-23T18:32:07.913Z,10.80
2018-09-23T19:47:30.138Z,10.00
2018-09-23T19:50:32.773Z,9.90
2018-09-23T20:14:16.397Z,9.80
2018-09-23T20:16:50.538Z,9.80
2018-09-23T20:19:33.938Z,9.80
2018-09-23T20:22:21.651Z,9.80
2018-09-23T20:24:56.732Z,9.90
2018-09-23T20:27:29.211Z,9.90
2018-09-23T20:29:59.445Z,9.90
2018-09-23T20:32:31.246Z,9.90
2018-09-23T20:35:01.833Z,9.90
2018-09-23T20:37:41.783Z,9.90
2018-09-23T20:40:15.040Z,9.90
2018-09-23T20:42:47.530Z,9.90
2018-09-23T20:45:20.033Z,10.00
2018-09-23T20:47:52.490Z,10.00
2018-09-23T20:50:28.006Z,10.00
2018-09-23T20:53:09.795Z,10.00
2018-09-23T20:56:16.120Z,10.00
2018-09-23T21:01:51.443Z,10.00
2018-09-23T21:04:33.562Z,10.00
2018-09-23T21:07:04.097Z,10.00
2018-09-23T21:09:35.100Z,10.00
2018-09-23T21:12:05.978Z,10.00
2018-09-23T21:14:38.618Z,10.00
2018-09-23T21:17:27.935Z,10.00
2018-09-23T21:20:13.819Z,10.00
2018-09-23T21:22:54.015Z,10.00
2018-09-23T21:25:40.839Z,10.00
2018-09-23T21:28:29.813Z,10.00
2018-09-23T21:31:01.413Z,10.00
2018-09-23T21:33:34.658Z,10.10
2018-09-23T21:36:23.185Z,10.10
2018-09-23T21:42:09.994Z,10.10
2018-09-23T21:44:50.558Z,10.20
2018-09-23T21:50:28.651Z,10.20
2018-09-23T21:56:28.614Z,10.20
2018-09-23T21:59:03.606Z,10.20
2018-09-23T22:02:00.368Z,10.20
2018-09-23T22:04:36.053Z,10.20
2018-09-23T22:07:08.410Z,10.20
2018-09-23T22:09:51.267Z,10.20
2018-09-23T22:12:22.027Z,10.20
2018-09-23T22:14:54.523Z,10.30
2018-09-23T22:17:25.518Z,10.30
2018-09-23T22:20:12.176Z,10.30
2018-09-23T22:22:44.062Z,10.30
2018-09-23T22:25:16.312Z,10.30
2018-09-23T22:27:47.224Z,10.30
2018-09-23T22:30:18.768Z,10.30
2018-09-23T22:32:51.807Z,10.30
2018-09-23T22:35:28.573Z,10.30
2018-09-23T22:38:04.875Z,10.30
2018-09-23T22:41:04.929Z,10.30
2018-09-23T22:43:58.667Z,10.30
2018-09-23T22:46:38.138Z,10.30
2018-09-23T22:49:17.077Z,10.40
2018-09-23T22:52:02.264Z,10.30
2018-09-23T22:54:34.569Z,10.30
2018-09-23T22:57:06.050Z,10.30
2018-09-23T22:59:38.208Z,10.30
2018-09-23T23:02:10.310Z,10.30
2018-09-23T23:04:49.016Z,10.30
2018-09-23T23:07:26.458Z,10.30
2018-09-23T23:09:57.544Z,10.30
2018-09-23T23:12:27.660Z,10.30
2018-09-23T23:14:58.703Z,10.30
2018-09-23T23:17:30.488Z,10.30
2018-09-23T23:20:02.273Z,10.30
2018-09-23T23:22:32.438Z,10.30
2018-09-23T23:25:02.558Z,10.30
2018-09-23T23:27:35.228Z,10.30
2018-09-23T23:30:05.253Z,10.20
2018-09-23T23:32:35.979Z,10.20
2018-09-23T23:35:06.856Z,10.20
2018-09-23T23:37:39.273Z,10.20
2018-09-23T23:40:10.029Z,10.20
2018-09-23T23:42:41.443Z,10.10
2018-09-23T23:45:14.189Z,10.10
2018-09-23T23:47:44.801Z,10.10
2018-09-23T23:50:15.931Z,10.10
2018-09-23T23:52:46.492Z,10.10
2018-09-23T23:55:20.029Z,10.10
2018-09-23T23:57:50.244Z,10.00
